Terminal Aerodrome Forecast
Issued by NWS

Home | Current Version | Previous Version | Text Only | Print | Product List | Glossary On
Versions: 1 2 3 4 5 6 7 8 9 10 11 12 13 14 15 16 17 18 19 20 21 22 23 24 25 26 27 28 29 30 31 32 33 34 35 36
000
FTUS44 KHGX 031739
TAFUTS
TAF
KUTS 031739Z 0318/0418 VRB03KT P6SM SCT040
     FM032100 13006KT P6SM FEW060
     FM040300 VRB03KT P6SM SKC
     FM041000 00000KT 6SM MIFG BKN010
      TEMPO 0410/0413 3SM BR BKN006
     FM041500 14004KT P6SM SCT008 BKN020=

USA.gov is the U.S. government's official web portal to all federal, state and local government web resources and services.